EWG4M EDDL-EVRA
Flight info
| Callsign | EWG4M |
|---|---|
| Flight time | N/A |
| Altitude | 37000 |
| Route | MEVEL4T/23L MEVEL L179 OSNAD M170 STADE DCT GIMRU DCT NINTA DCT ADAXA M405 ORVIX |
| Aircraft | A320/M-SDE3FGHIRWY/LB1 |
Departure
| Time | N/A |
|---|---|
| Airport | Düsseldorf Airport (EDDL) |
Arrival
| Time | 2026-05-03 20:23 |
|---|---|
| Airport | Riga International Airport (EVRA) |
| Time | Latitude | Longitude | Altitude | Speed | Heading |
|---|---|---|---|---|---|
| 2026-05-03 20:15 | 57.10934 | 23.62823 | 5036 ft | 284 kts | 75° |
| 2026-05-03 20:15 | 57.11425 | 23.66308 | 4737 ft | 282 kts | 76° |
| 2026-05-03 20:15 | 57.11908 | 23.69745 | 4429 ft | 280 kts | 76° |
| 2026-05-03 20:15 | 57.12391 | 23.73200 | 4152 ft | 276 kts | 76° |
| 2026-05-03 20:16 | 57.12854 | 23.76509 | 4052 ft | 255 kts | 76° |
| 2026-05-03 20:16 | 57.13275 | 23.79522 | 3992 ft | 240 kts | 76° |
| 2026-05-03 20:16 | 57.13584 | 23.82519 | 3977 ft | 234 kts | 88° |
| 2026-05-03 20:16 | 57.13570 | 23.85493 | 3728 ft | 233 kts | 96° |
| 2026-05-03 20:17 | 57.13419 | 23.88449 | 3426 ft | 231 kts | 98° |
| 2026-05-03 20:17 | 57.13248 | 23.91339 | 3157 ft | 227 kts | 98° |
| 2026-05-03 20:17 | 57.13089 | 23.94190 | 2907 ft | 223 kts | 97° |
| 2026-05-03 20:17 | 57.12917 | 23.97017 | 2668 ft | 220 kts | 105° |
| 2026-05-03 20:18 | 57.12192 | 23.99412 | 2502 ft | 221 kts | 147° |
| 2026-05-03 20:18 | 57.10810 | 24.00381 | 2507 ft | 213 kts | 185° |
| 2026-05-03 20:18 | 57.09356 | 24.00129 | 2514 ft | 205 kts | 193° |
| 2026-05-03 20:18 | 57.07994 | 23.99780 | 2492 ft | 194 kts | 192° |
| 2026-05-03 20:19 | 57.06701 | 23.99499 | 2588 ft | 177 kts | 191° |
| 2026-05-03 20:19 | 57.05533 | 23.99287 | 2383 ft | 165 kts | 190° |
| 2026-05-03 20:19 | 57.04426 | 23.99103 | 2165 ft | 154 kts | 191° |
| 2026-05-03 20:19 | 57.03424 | 23.98942 | 1976 ft | 141 kts | 190° |
| 2026-05-03 20:20 | 57.02452 | 23.98783 | 1782 ft | 138 kts | 191° |
| 2026-05-03 20:20 | 57.01498 | 23.98625 | 1601 ft | 138 kts | 190° |
| 2026-05-03 20:20 | 57.00544 | 23.98467 | 1424 ft | 138 kts | 189° |
| 2026-05-03 20:20 | 56.99588 | 23.98324 | 1243 ft | 138 kts | 188° |
| 2026-05-03 20:21 | 56.98645 | 23.98170 | 1037 ft | 137 kts | 188° |
| 2026-05-03 20:21 | 56.97692 | 23.98003 | 853 ft | 137 kts | 188° |
| 2026-05-03 20:21 | 56.96746 | 23.97856 | 689 ft | 137 kts | 187° |
| 2026-05-03 20:21 | 56.95799 | 23.97685 | 523 ft | 136 kts | 187° |
| 2026-05-03 20:22 | 56.94854 | 23.97522 | 333 ft | 136 kts | 186° |
| 2026-05-03 20:22 | 56.93923 | 23.97375 | 141 ft | 134 kts | 185° |
| 2026-05-03 20:22 | 56.93019 | 23.97232 | 33 ft | 124 kts | 185° |
| 2026-05-03 20:22 | 56.92301 | 23.97111 | 31 ft | 79 kts | 185° |
| 2026-05-03 20:23 | 56.91917 | 23.97064 | 28 ft | 31 kts | 166° |
| 2026-05-03 20:23 | 56.91749 | 23.97192 | 29 ft | 15 kts | 154° |
| 2026-05-03 20:23 | 56.91713 | 23.97290 | 30 ft | 8 kts | 96° |
| 2026-05-03 20:23 | 56.91712 | 23.97320 | 30 ft | 0 kts | 93° |
| 2026-05-03 20:24 | 56.91712 | 23.97322 | 30 ft | 0 kts | 93° |
| 2026-05-03 20:24 | 56.91712 | 23.97349 | 30 ft | 4 kts | 86° |
| 2026-05-03 20:24 | 56.91737 | 23.97407 | 30 ft | 7 kts | 21° |
| 2026-05-03 20:24 | 56.91799 | 23.97417 | 30 ft | 10 kts | 4° |
| 2026-05-03 20:25 | 56.91884 | 23.97432 | 30 ft | 13 kts | 5° |
| 2026-05-03 20:25 | 56.91987 | 23.97440 | 30 ft | 15 kts | 1° |
| 2026-05-03 20:25 | 56.92097 | 23.97457 | 31 ft | 15 kts | 6° |
| 2026-05-03 20:25 | 56.92211 | 23.97477 | 31 ft | 16 kts | 5° |
| 2026-05-03 20:26 | 56.92323 | 23.97496 | 31 ft | 11 kts | 8° |
| 2026-05-03 20:26 | 56.92356 | 23.97587 | 33 ft | 9 kts | 95° |
| 2026-05-03 20:26 | 56.92339 | 23.97681 | 34 ft | 6 kts | 154° |
| 2026-05-03 20:26 | 56.92302 | 23.97681 | 35 ft | 4 kts | 186° |
| 2026-05-03 20:27 | 56.92291 | 23.97679 | 35 ft | 0 kts | 185° |